Terminal Aerodrome Forecast
Issued by NWS Raleigh/Durham, NC

Home | Current Version | Previous Version | Text Only | Print | Product List | Glossary On
Versions: 1 2 3 4 5 6 7 8 9 10 11 12 13 14 15 16 17 18 19 20 21 22
000
FTUS42 KRAH 280526
TAFFAY
TAF
KFAY 280526Z 2806/2906 18003KT P6SM VCTS SCT050CB BKN080
      TEMPO 2806/2807 29020G35KT 3SM -TSRA BKN035CB
     FM280800 19003KT P6SM BKN100
     FM281000 17003KT 3SM BR SCT007
     FM281400 19006KT P6SM SCT040 BKN100
     FM282100 18007KT P6SM VCTS SCT035CB=

USA.gov is the U.S. government's official web portal to all federal, state and local government web resources and services.